Time;durP1;ratioP1;P1;durP2;ratioP2;P2;SDS_P1;SDS_P2;PMS_P1;PMS_P2;Temp;Humidity;BMP_temperature;BMP_pressure;BME280_temperature;BME280_humidity;BME280_pressure;Samples;Min_cycle;Max_cycle;Signal;HPM_P1;HPM_P2
2023/03/21 00:01:56;;;;;;;4.70;4.27;;;;;;;8.44;66.89;99768.50;6170009;23;20198;-79
2023/03/21 00:04:24;;;;;;;4.90;3.90;;;;;;;8.42;66.77;99765.94;6146133;23;20151;-79
2023/03/21 00:06:49;;;;;;;5.82;4.10;;;;;;;8.41;66.87;99767.72;6173194;23;20236;-79
2023/03/21 00:09:15;;;;;;;6.43;3.73;;;;;;;8.38;66.78;99767.84;6172258;23;20163;-79
2023/03/21 00:11:41;;;;;;;5.27;4.10;;;;;;;8.39;66.92;99777.41;6175744;23;20158;-78
2023/03/21 00:14:07;;;;;;;6.00;4.00;;;;;;;8.38;66.86;99778.31;6175218;23;20238;-79
2023/03/21 00:16:34;;;;;;;6.80;4.15;;;;;;;8.37;66.94;99779.25;6177327;23;20181;-81
2023/03/21 00:19:05;;;;;;;5.70;4.07;;;;;;;8.33;66.76;99780.34;6177467;23;20474;-79
2023/03/21 00:21:32;;;;;;;5.50;4.28;;;;;;;8.30;66.96;99777.03;6177117;23;20188;-78
2023/03/21 00:23:59;;;;;;;3.72;3.35;;;;;;;8.25;66.91;99777.25;6176086;23;20155;-78
2023/03/21 00:26:25;;;;;;;5.30;3.30;;;;;;;8.19;66.98;99780.19;6175956;23;20158;-80
2023/03/21 00:28:51;;;;;;;3.45;2.72;;;;;;;8.10;67.17;99781.53;6175663;23;20165;-79
2023/03/21 00:31:19;;;;;;;2.97;2.70;;;;;;;8.01;67.15;99779.34;6149487;23;20146;-78
2023/03/21 00:33:45;;;;;;;5.10;2.60;;;;;;;7.92;67.43;99778.06;6176017;23;20155;-79
2023/03/21 00:36:11;;;;;;;3.80;2.90;;;;;;;7.87;67.33;99776.59;6175802;23;20159;-79
2023/03/21 00:38:37;;;;;;;3.35;3.05;;;;;;;7.79;67.50;99763.88;6175724;23;20222;-79
2023/03/21 00:41:04;;;;;;;3.10;2.70;;;;;;;7.73;67.71;99759.81;6176231;23;20218;-80
2023/03/21 00:43:29;;;;;;;6.32;3.25;;;;;;;7.72;67.83;99765.97;6176129;23;20212;-79
2023/03/21 00:45:57;;;;;;;3.33;2.87;;;;;;;7.72;67.75;99757.25;6174843;23;20257;-78
2023/03/21 00:48:23;;;;;;;5.22;3.22;;;;;;;7.67;67.69;99765.34;6176179;23;20706;-80
2023/03/21 00:50:51;;;;;;;4.45;2.88;;;;;;;7.63;67.64;99763.78;6175983;23;20262;-78
2023/03/21 00:53:17;;;;;;;2.67;2.30;;;;;;;7.55;67.91;99760.72;6176172;23;20165;-80
2023/03/21 00:55:45;;;;;;;2.53;2.10;;;;;;;7.47;67.88;99761.06;6147602;23;20230;-78
2023/03/21 00:58:10;;;;;;;2.40;1.93;;;;;;;7.39;68.33;99754.53;6174643;23;20841;-78
2023/03/21 01:00:36;;;;;;;4.30;2.90;;;;;;;7.36;68.48;99749.47;6148551;23;20163;-78
2023/03/21 01:03:06;;;;;;;4.88;2.80;;;;;;;7.30;68.54;99756.66;6174356;23;20601;-81
2023/03/21 01:06:03;;;;;;;3.00;2.70;;;;;;;7.30;68.56;99746.22;6174702;23;20158;-80
2023/03/21 01:08:28;;;;;;;2.10;1.90;;;;;;;7.30;68.53;99745.38;6174236;23;20209;-79
2023/03/21 01:10:54;;;;;;;2.63;1.95;;;;;;;7.31;68.54;99744.44;6175241;23;20150;-79
2023/03/21 01:13:22;;;;;;;5.05;1.95;;;;;;;7.34;68.34;99746.06;6175122;23;20163;-78
2023/03/21 01:15:51;;;;;;;2.65;2.00;;;;;;;7.31;68.32;99741.84;6148580;23;20269;-79
2023/03/21 01:18:20;;;;;;;4.03;2.85;;;;;;;7.25;68.49;99753.44;6173119;23;20645;-80
2023/03/21 01:20:46;;;;;;;6.32;2.90;;;;;;;7.25;68.39;99744.75;6174590;23;20297;-79
2023/03/21 01:23:14;;;;;;;3.17;2.75;;;;;;;7.23;68.37;99747.41;6149149;23;20295;-79
2023/03/21 01:25:40;;;;;;;3.33;2.15;;;;;;;7.24;68.46;99743.91;6148630;23;20186;-79
2023/03/21 01:28:06;;;;;;;4.53;2.63;;;;;;;7.22;68.34;99748.34;6148597;23;20206;-79
2023/03/21 01:30:32;;;;;;;2.63;2.42;;;;;;;7.21;68.46;99737.97;6146217;23;20391;-79
2023/03/21 01:33:00;;;;;;;3.88;2.53;;;;;;;7.19;68.38;99743.28;6147905;23;20173;-79
2023/03/21 01:35:25;;;;;;;3.33;2.53;;;;;;;7.17;68.59;99739.88;6148857;23;20154;-79
2023/03/21 01:37:51;;;;;;;4.53;2.90;;;;;;;7.09;68.63;99731.56;6175665;23;20209;-78
2023/03/21 01:40:24;;;;;;;10.53;3.13;;;;;;;6.97;68.80;99735.59;6147700;23;20501;-80
2023/03/21 01:42:55;;;;;;;3.03;2.72;;;;;;;6.90;68.96;99731.59;6148701;23;20254;-79
2023/03/21 01:45:59;;;;;;;3.60;3.20;;;;;;;6.94;68.89;99732.28;6148181;23;20197;-78
2023/03/21 01:48:41;;;;;;;4.75;2.58;;;;;;;6.96;68.80;99726.06;6148201;23;20217;-78
2023/03/21 01:51:09;;;;;;;4.05;2.97;;;;;;;6.99;69.05;99727.69;6146773;23;20163;-79
2023/03/21 01:53:39;;;;;;;3.83;2.53;;;;;;;7.02;68.91;99723.19;6173723;23;20154;-79
2023/03/21 01:56:22;;;;;;;3.40;2.30;;;;;;;7.05;68.69;99727.41;6147873;23;20342;-81
2023/03/21 01:59:01;;;;;;;3.40;2.75;;;;;;;7.02;68.71;99722.31;6148985;23;20162;-79
2023/03/21 02:01:46;;;;;;;4.00;3.28;;;;;;;6.98;68.66;99720.78;6147564;23;20186;-80
2023/03/21 02:04:12;;;;;;;4.25;3.85;;;;;;;6.97;68.65;99724.31;6175593;23;20155;-78
2023/03/21 02:06:56;;;;;;;4.35;3.60;;;;;;;6.98;68.39;99729.47;6149262;23;20233;-78
2023/03/21 02:09:34;;;;;;;3.15;2.85;;;;;;;6.99;68.44;99722.47;6148345;23;20501;-78
2023/03/21 02:12:01;;;;;;;3.97;3.15;;;;;;;6.99;68.24;99719.84;6150475;23;20155;-79
2023/03/21 02:14:32;;;;;;;5.38;4.50;;;;;;;6.99;68.63;99722.47;6150061;23;20610;-78
2023/03/21 02:17:29;;;;;;;6.82;3.67;;;;;;;6.98;68.52;99710.34;6152847;23;20210;-81
2023/03/21 02:20:30;;;;;;;4.15;3.83;;;;;;;6.96;68.33;99709.56;6156590;23;20162;-82
2023/03/21 02:23:36;;;;;;;3.85;3.40;;;;;;;6.94;68.25;99709.66;6155546;23;20197;-80
2023/03/21 02:26:36;;;;;;;3.15;2.95;;;;;;;6.90;68.51;99699.41;6158283;23;20170;-83
2023/03/21 02:29:27;;;;;;;4.70;2.42;;;;;;;6.82;68.36;99710.19;6160423;23;20169;-78
2023/03/21 02:31:59;;;;;;;3.47;2.05;;;;;;;6.71;68.60;99707.25;6152322;23;20666;-81
2023/03/21 02:34:43;;;;;;;2.50;2.17;;;;;;;6.57;68.71;99705.28;6173764;23;20155;-80
2023/03/21 02:37:41;;;;;;;3.95;3.15;;;;;;;6.49;68.90;99710.00;6143249;23;20542;-79
2023/03/21 02:40:48;;;;;;;3.05;2.53;;;;;;;6.46;68.85;99703.16;6079464;23;20206;-79
2023/03/21 02:43:29;;;;;;;2.40;2.20;;;;;;;6.48;68.62;99698.72;6030921;23;20225;-79
2023/03/21 02:46:09;;;;;;;4.97;2.63;;;;;;;6.45;68.79;99695.38;6135950;23;20163;-78
2023/03/21 02:48:45;;;;;;;4.35;2.95;;;;;;;6.35;68.75;99695.81;6142209;23;20167;-80
2023/03/21 02:51:16;;;;;;;7.45;2.85;;;;;;;6.31;69.18;99691.63;6142740;23;20159;-78
2023/03/21 02:53:46;;;;;;;3.63;2.95;;;;;;;6.31;69.02;99696.84;6143271;23;20187;-81
2023/03/21 02:56:11;;;;;;;3.85;2.88;;;;;;;6.33;69.16;99699.41;6143203;23;20546;-81
2023/03/21 02:58:43;;;;;;;4.20;3.50;;;;;;;6.34;69.01;99701.91;6141825;23;20230;-78
2023/03/21 03:01:09;;;;;;;3.90;2.70;;;;;;;6.36;69.15;99688.81;6142347;23;20187;-78
2023/03/21 03:03:43;;;;;;;5.03;1.98;;;;;;;6.37;69.19;99691.38;6137783;23;20541;-79
2023/03/21 03:06:17;;;;;;;3.50;3.20;;;;;;;6.39;68.97;99683.47;6164663;23;20275;-80
2023/03/21 03:09:03;;;;;;;3.63;2.08;;;;;;;6.41;68.99;99684.25;6141343;23;20150;-78
2023/03/21 03:11:34;;;;;;;3.40;3.10;;;;;;;6.41;68.82;99679.88;6139780;23;20245;-79
2023/03/21 03:14:18;;;;;;;5.50;3.13;;;;;;;6.41;68.94;99679.88;6144930;23;20155;-78
2023/03/21 03:16:47;;;;;;;4.00;2.65;;;;;;;6.38;68.61;99681.78;6167329;23;20696;-79
2023/03/21 03:19:26;;;;;;;4.32;3.00;;;;;;;6.34;68.80;99673.22;6143847;23;20159;-79
2023/03/21 03:22:07;;;;;;;3.63;2.88;;;;;;;6.33;69.04;99668.09;6142249;23;20292;-80
2023/03/21 03:25:01;;;;;;;3.25;2.35;;;;;;;6.25;68.98;99673.66;6167859;23;20167;-79
2023/03/21 03:27:33;;;;;;;5.00;4.45;;;;;;;6.19;69.25;99676.53;6133595;23;20277;-78
2023/03/21 03:30:04;;;;;;;4.88;3.50;;;;;;;6.18;69.17;99669.63;6142710;23;20205;-78
2023/03/21 03:32:35;;;;;;;4.22;2.80;;;;;;;6.19;69.19;99676.53;6142604;23;20170;-80
2023/03/21 03:35:03;;;;;;;4.15;3.75;;;;;;;6.19;68.98;99676.53;6143830;23;20162;-79
2023/03/21 03:37:34;;;;;;;5.50;3.92;;;;;;;6.19;68.83;99674.78;6142277;23;20257;-79
2023/03/21 03:40:07;;;;;;;4.10;3.70;;;;;;;6.19;69.37;99671.31;6165918;23;20598;-80
2023/03/21 03:42:37;;;;;;;4.68;3.30;;;;;;;6.19;68.87;99676.53;6142267;23;20201;-81
2023/03/21 03:45:14;;;;;;;8.48;3.42;;;;;;;6.18;68.80;99675.69;6167810;23;20192;-81
2023/03/21 03:47:52;;;;;;;7.07;3.28;;;;;;;6.17;68.89;99678.38;6169557;23;20676;-80
2023/03/21 03:50:27;;;;;;;3.70;3.40;;;;;;;6.17;69.22;99688.78;6149346;23;20590;-80
2023/03/21 03:53:03;;;;;;;4.20;3.15;;;;;;;6.17;68.96;99678.38;6175114;23;20269;-80
2023/03/21 03:55:33;;;;;;;5.50;3.60;;;;;;;6.17;68.82;99684.41;6142307;23;20163;-79
2023/03/21 03:58:02;;;;;;;5.22;3.85;;;;;;;6.17;69.09;99681.81;6143632;23;20179;-80
2023/03/21 04:00:32;;;;;;;3.87;3.50;;;;;;;6.17;68.84;99676.59;6141595;23;20156;-80
2023/03/21 04:02:58;;;;;;;5.28;3.97;;;;;;;6.17;68.99;99678.38;6141291;23;20170;-80
2023/03/21 04:05:25;;;;;;;5.90;3.65;;;;;;;6.16;69.23;99681.91;6164097;23;20159;-80
2023/03/21 04:07:53;;;;;;;4.95;3.17;;;;;;;6.15;68.92;99685.41;6165501;23;20516;-81
2023/03/21 04:10:26;;;;;;;10.18;9.45;;;;;;;6.15;69.46;99688.00;6141294;23;20169;-78
2023/03/21 04:12:52;;;;;;;4.38;3.75;;;;;;;6.13;69.08;99684.63;6141917;23;20155;-79
2023/03/21 04:15:29;;;;;;;4.80;4.00;;;;;;;6.10;69.43;99687.34;6142455;23;20174;-79
2023/03/21 04:18:02;;;;;;;7.13;4.50;;;;;;;6.09;69.34;99685.69;6142298;23;20191;-78
2023/03/21 04:20:28;;;;;;;5.32;4.15;;;;;;;6.10;69.25;99684.75;6141957;23;20170;-81
2023/03/21 04:22:55;;;;;;;4.28;3.88;;;;;;;6.09;69.25;99683.06;6142029;23;20171;-79
2023/03/21 04:25:21;;;;;;;5.88;4.20;;;;;;;6.06;69.28;99685.81;6142684;23;20167;-79
2023/03/21 04:27:47;;;;;;;7.03;4.33;;;;;;;6.06;69.26;99684.06;6142269;23;20211;-79
2023/03/21 04:30:33;;;;;;;6.15;4.85;;;;;;;6.05;68.86;99687.59;6143213;23;20575;-79
2023/03/21 04:33:19;;;;;;;5.13;3.78;;;;;;;6.05;69.13;99678.88;6167423;23;20561;-78
2023/03/21 04:35:57;;;;;;;3.80;3.50;;;;;;;6.02;69.20;99684.25;6138482;23;20155;-80
2023/03/21 04:38:29;;;;;;;6.53;4.07;;;;;;;6.00;69.42;99680.88;6130744;23;20568;-80
2023/03/21 04:40:56;;;;;;;4.85;4.00;;;;;;;5.97;69.25;99682.69;6080400;23;20226;-79
2023/03/21 04:43:22;;;;;;;5.95;3.80;;;;;;;5.95;69.52;99679.31;6148167;23;20156;-80
2023/03/21 04:45:49;;;;;;;5.00;3.45;;;;;;;5.90;69.40;99676.00;6136099;23;20711;-79
2023/03/21 04:48:16;;;;;;;5.60;3.58;;;;;;;5.82;69.51;99672.91;6141220;23;20183;-79
2023/03/21 04:50:43;;;;;;;5.95;3.40;;;;;;;5.75;69.81;99671.44;6143020;23;20167;-79
2023/03/21 04:53:09;;;;;;;3.85;3.28;;;;;;;5.73;69.92;99679.34;6140943;23;21033;-79
2023/03/21 04:55:35;;;;;;;3.43;3.13;;;;;;;5.74;69.78;99674.97;6139908;23;20163;-80
2023/03/21 04:58:03;;;;;;;4.20;3.80;;;;;;;5.74;69.77;99670.59;6144106;23;20394;-80
2023/03/21 05:00:29;;;;;;;6.40;4.75;;;;;;;5.75;69.94;99672.31;6147637;23;20610;-80
2023/03/21 05:02:56;;;;;;;8.60;6.80;;;;;;;5.74;69.84;99674.97;6147308;23;20242;-81
2023/03/21 05:05:22;;;;;;;9.77;7.35;;;;;;;5.73;69.81;99674.13;6146557;23;20729;-80
2023/03/21 05:07:48;;;;;;;5.72;5.22;;;;;;;5.70;69.54;99676.88;6146466;23;20187;-80
2023/03/21 05:10:13;;;;;;;5.93;5.00;;;;;;;5.63;69.66;99667.63;6147074;23;20206;-79
2023/03/21 05:12:40;;;;;;;6.50;5.40;;;;;;;5.56;69.73;99676.59;6147549;23;20160;-80
2023/03/21 05:15:06;;;;;;;7.37;5.07;;;;;;;5.52;69.86;99670.69;6147676;23;20164;-81
2023/03/21 05:17:32;;;;;;;6.20;4.07;;;;;;;5.53;70.18;99671.53;6148055;23;20399;-80
2023/03/21 05:19:58;;;;;;;7.67;4.83;;;;;;;5.56;70.29;99671.38;6148027;23;20178;-80
2023/03/21 05:22:25;;;;;;;5.13;4.07;;;;;;;5.58;70.15;99663.53;6150880;23;20190;-79
2023/03/21 05:24:54;;;;;;;5.70;4.45;;;;;;;5.61;70.22;99669.44;6173712;23;20156;-79
2023/03/21 05:27:35;;;;;;;9.95;6.03;;;;;;;5.65;69.85;99667.56;6149096;23;20167;-80
2023/03/21 05:30:07;;;;;;;8.23;4.30;;;;;;;5.70;70.09;99668.22;6149353;23;20187;-80
2023/03/21 05:32:33;;;;;;;9.75;4.60;;;;;;;5.71;69.41;99665.53;6171560;23;20155;-80
2023/03/21 05:34:59;;;;;;;4.00;3.63;;;;;;;5.72;69.66;99666.38;6145011;23;20181;-79
2023/03/21 05:37:25;;;;;;;10.17;3.70;;;;;;;5.72;70.06;99667.22;6146812;23;20726;-80
2023/03/21 05:39:50;;;;;;;7.07;3.70;;;;;;;5.72;69.84;99661.16;6146199;23;20284;-79
2023/03/21 05:42:23;;;;;;;7.07;3.97;;;;;;;5.68;69.69;99657.84;6147120;23;20430;-80
2023/03/21 05:44:49;;;;;;;9.55;3.67;;;;;;;5.68;70.05;99663.06;6146108;23;20159;-80
2023/03/21 05:47:16;;;;;;;5.25;3.05;;;;;;;5.70;69.89;99658.63;6145901;23;20622;-80
2023/03/21 05:49:44;;;;;;;6.13;3.63;;;;;;;5.75;69.89;99663.63;6145602;23;20551;-80
2023/03/21 05:52:10;;;;;;;4.60;3.27;;;;;;;5.79;69.70;99665.22;6146279;23;20159;-80
2023/03/21 05:54:36;;;;;;;5.67;3.70;;;;;;;5.85;69.81;99672.75;6169042;23;20170;-79
2023/03/21 05:57:03;;;;;;;7.35;4.25;;;;;;;5.91;69.39;99661.22;6143507;23;20480;-79
2023/03/21 05:59:50;;;;;;;5.13;4.10;;;;;;;5.95;69.26;99668.03;6145370;23;20195;-79
2023/03/21 06:02:16;;;;;;;4.55;3.83;;;;;;;6.01;69.45;99661.69;6145916;23;20226;-79
2023/03/21 06:04:42;;;;;;;6.37;4.27;;;;;;;6.09;69.01;99668.25;6145249;23;20530;-80
2023/03/21 06:07:08;;;;;;;5.93;4.80;;;;;;;6.19;68.98;99671.31;6144825;23;20159;-80
2023/03/21 06:09:37;;;;;;;10.63;5.07;;;;;;;6.32;68.99;99667.25;6144760;23;20703;-80
2023/03/21 06:12:03;;;;;;;8.20;6.60;;;;;;;6.46;68.49;99668.38;6146627;23;20182;-80
2023/03/21 06:14:33;;;;;;;5.55;4.28;;;;;;;6.60;68.42;99666.81;6147352;23;20164;-81
2023/03/21 06:17:15;;;;;;;5.97;3.90;;;;;;;6.73;68.25;99658.44;6144223;23;20729;-79
2023/03/21 06:19:55;;;;;;;4.65;4.25;;;;;;;6.85;67.84;99653.47;6144105;23;20209;-80
2023/03/21 06:22:27;;;;;;;5.05;4.57;;;;;;;6.97;67.75;99659.03;6145157;23;20191;-80
2023/03/21 06:24:52;;;;;;;5.45;3.97;;;;;;;7.13;67.62;99660.00;6144557;23;20274;-79
2023/03/21 06:27:18;;;;;;;4.03;3.60;;;;;;;7.28;67.77;99654.00;6143724;23;20164;-79
2023/03/21 06:29:49;;;;;;;4.18;2.83;;;;;;;7.44;67.49;99650.63;6141294;23;20183;-80
2023/03/21 06:32:16;;;;;;;2.57;2.37;;;;;;;7.59;67.17;99642.03;6171481;23;20709;-80
2023/03/21 06:34:42;;;;;;;2.28;2.03;;;;;;;7.75;66.64;99650.78;6171031;23;21252;-81
2023/03/21 06:37:12;;;;;;;3.25;2.95;;;;;;;7.92;66.47;99647.28;6146235;23;20217;-80
2023/03/21 06:39:37;;;;;;;4.00;2.97;;;;;;;8.10;66.16;99652.47;6143878;23;20203;-80
2023/03/21 06:42:03;;;;;;;4.17;2.33;;;;;;;8.27;65.77;99648.97;6147748;23;20223;-80
2023/03/21 06:44:29;;;;;;;7.63;3.07;;;;;;;8.44;65.50;99650.72;6147298;23;20223;-80
2023/03/21 06:47:00;;;;;;;5.60;3.72;;;;;;;8.62;64.96;99645.31;6147649;23;20159;-80
2023/03/21 06:49:27;;;;;;;2.90;2.57;;;;;;;8.75;64.67;99644.63;6146693;23;20156;-80
2023/03/21 06:51:53;;;;;;;3.83;2.63;;;;;;;8.87;64.33;99641.31;6143508;23;20467;-79
2023/03/21 06:54:19;;;;;;;4.67;3.20;;;;;;;8.98;64.07;99635.47;6171715;23;20175;-79
2023/03/21 06:56:58;;;;;;;3.55;3.05;;;;;;;9.10;63.86;99629.56;6145043;23;20402;-80
2023/03/21 06:59:30;;;;;;;3.42;3.10;;;;;;;9.16;63.72;99628.38;6146514;23;20254;-80
2023/03/21 07:02:04;;;;;;;2.38;2.17;;;;;;;9.22;63.62;99630.63;6146068;23;20193;-79
2023/03/21 07:04:32;;;;;;;3.05;2.30;;;;;;;9.27;63.52;99637.28;6147846;23;20191;-79
2023/03/21 07:06:57;;;;;;;2.77;2.57;;;;;;;9.35;63.39;99633.38;6144369;23;20163;-79
2023/03/21 07:09:26;;;;;;;3.53;2.47;;;;;;;9.40;63.46;99632.19;6142230;23;20583;-79
2023/03/21 07:11:54;;;;;;;5.82;3.40;;;;;;;9.52;63.15;99630.59;6140461;23;20182;-79
2023/03/21 07:14:24;;;;;;;5.20;2.55;;;;;;;9.64;62.91;99624.66;6142069;23;20167;-79
2023/03/21 07:16:50;;;;;;;3.10;1.95;;;;;;;9.77;62.57;99621.28;6143107;23;20168;-79
2023/03/21 07:19:15;;;;;;;3.13;2.10;;;;;;;9.84;62.07;99630.47;6167543;23;20653;-80
2023/03/21 07:21:41;;;;;;;3.38;2.15;;;;;;;9.91;62.18;99631.78;6142505;23;20234;-82
2023/03/21 07:24:07;;;;;;;2.00;1.80;;;;;;;9.97;62.05;99627.00;6145618;23;20606;-81
2023/03/21 07:26:33;;;;;;;3.60;2.83;;;;;;;10.06;61.88;99620.34;6144386;23;20207;-81
2023/03/21 07:28:59;;;;;;;2.17;1.97;;;;;;;10.17;61.64;99617.91;6143265;23;20210;-82
2023/03/21 07:31:25;;;;;;;3.40;1.83;;;;;;;10.29;61.32;99616.34;6144182;23;20155;-79
2023/03/21 07:33:52;;;;;;;5.33;2.23;;;;;;;10.40;60.97;99613.91;6145405;23;20598;-81
2023/03/21 07:36:17;;;;;;;2.53;2.30;;;;;;;10.53;60.67;99615.72;6144530;23;20203;-80
2023/03/21 07:38:45;;;;;;;2.33;2.10;;;;;;;10.66;60.39;99607.94;6143405;23;20229;-79
2023/03/21 07:41:11;;;;;;;2.65;2.45;;;;;;;10.76;59.90;99609.88;6144747;23;20194;-82
2023/03/21 07:43:37;;;;;;;3.78;2.22;;;;;;;10.83;59.80;99613.78;6167869;23;20255;-80
2023/03/21 07:46:07;;;;;;;2.67;2.47;;;;;;;10.96;59.52;99610.34;6143988;23;20170;-79
2023/03/21 07:48:32;;;;;;;2.30;1.60;;;;;;;11.08;59.45;99618.28;6143351;23;20171;-80
2023/03/21 07:51:01;;;;;;;2.33;1.98;;;;;;;11.19;58.72;99612.31;6145670;23;20641;-79
2023/03/21 07:53:26;;;;;;;4.57;2.00;;;;;;;11.28;58.63;99616.97;6142941;23;20182;-78
2023/03/21 07:55:57;;;;;;;3.67;1.93;;;;;;;11.40;58.37;99620.59;6146465;23;20178;-82
2023/03/21 07:58:24;;;;;;;3.17;2.78;;;;;;;11.54;58.13;99614.38;6146344;23;20318;-81
2023/03/21 08:00:50;;;;;;;5.93;3.67;;;;;;;11.69;57.76;99613.34;6145076;23;20175;-79
2023/03/21 08:03:16;;;;;;;5.43;3.67;;;;;;;11.81;57.70;99621.34;6146234;23;20547;-79
2023/03/21 08:05:43;;;;;;;3.07;2.80;;;;;;;11.89;57.56;99619.06;6145469;23;20703;-79
2023/03/21 08:08:08;;;;;;;4.43;3.05;;;;;;;11.93;57.55;99618.72;6146008;23;20421;-80
2023/03/21 08:10:34;;;;;;;4.23;3.37;;;;;;;11.90;57.70;99620.75;6143312;23;20262;-81
2023/03/21 08:13:00;;;;;;;4.00;3.53;;;;;;;11.86;57.97;99620.13;6146237;23;20178;-79
2023/03/21 08:15:26;;;;;;;4.20;3.70;;;;;;;11.84;58.08;99623.78;6142942;23;20182;-81
2023/03/21 08:17:51;;;;;;;4.53;4.13;;;;;;;11.85;58.24;99622.81;6145282;23;20185;-79
2023/03/21 08:20:20;;;;;;;4.50;3.60;;;;;;;11.90;58.27;99620.75;6148842;23;20690;-79
2023/03/21 08:22:46;;;;;;;6.28;3.67;;;;;;;12.02;58.01;99626.97;6149261;23;20205;-80
2023/03/21 08:25:12;;;;;;;5.38;3.75;;;;;;;12.13;57.60;99621.78;6145454;23;20618;-79
2023/03/21 08:27:39;;;;;;;4.20;3.83;;;;;;;12.21;57.36;99622.09;6148342;23;20184;-79
2023/03/21 08:30:06;;;;;;;6.20;4.32;;;;;;;12.27;57.13;99620.81;6146252;23;20197;-79
2023/03/21 08:32:32;;;;;;;4.72;3.60;;;;;;;12.36;56.95;99621.00;6148654;23;20173;-80
2023/03/21 08:35:01;;;;;;;4.87;3.57;;;;;;;12.52;56.56;99625.19;6145137;23;20156;-80
2023/03/21 08:37:27;;;;;;;6.75;4.30;;;;;;;12.57;56.39;99623.91;6148275;23;20391;-80
2023/03/21 08:39:53;;;;;;;3.67;3.15;;;;;;;12.66;56.20;99622.41;6170501;23;20545;-79
2023/03/21 08:42:19;;;;;;;3.90;3.57;;;;;;;12.79;55.85;99617.91;6175014;23;20186;-81
2023/03/21 08:44:45;;;;;;;4.22;3.33;;;;;;;12.94;55.28;99615.16;6169237;23;20182;-79
2023/03/21 08:47:10;;;;;;;4.60;3.67;;;;;;;13.11;54.52;99616.53;6170292;23;20163;-80
2023/03/21 08:49:36;;;;;;;4.60;3.83;;;;;;;13.26;54.10;99612.78;6171451;23;20175;-80
2023/03/21 08:52:01;;;;;;;4.83;3.70;;;;;;;13.41;53.80;99614.25;6171490;23;20274;-79
2023/03/21 08:54:27;;;;;;;9.37;4.97;;;;;;;13.61;53.53;99615.41;6169734;23;20750;-82
2023/03/21 08:56:53;;;;;;;8.30;5.60;;;;;;;13.75;53.04;99617.00;6171431;23;20152;-79
2023/03/21 08:59:19;;;;;;;5.20;4.70;;;;;;;13.82;53.07;99615.53;6171438;23;20237;-79
2023/03/21 09:01:45;;;;;;;6.53;5.00;;;;;;;14.01;52.68;99617.59;6173096;23;20187;-82
2023/03/21 09:04:11;;;;;;;16.30;11.25;;;;;;;14.20;52.30;99606.44;6171848;23;20460;-79
2023/03/21 09:06:39;;;;;;;13.70;8.40;;;;;;;14.39;51.95;99611.97;6168965;23;20254;-80
2023/03/21 09:09:07;;;;;;;5.72;4.70;;;;;;;14.60;51.32;99598.84;6171235;23;20186;-79
2023/03/21 09:11:33;;;;;;;7.68;3.92;;;;;;;14.68;50.81;99600.88;6171679;23;20159;-79
2023/03/21 09:13:59;;;;;;;4.47;3.33;;;;;;;14.67;50.94;99604.50;6171028;23;20177;-79
2023/03/21 09:16:24;;;;;;;5.20;2.93;;;;;;;14.65;50.89;99595.84;6169917;23;20601;-79
2023/03/21 09:18:54;;;;;;;3.70;2.87;;;;;;;14.62;50.65;99593.44;6169238;23;20558;-81
2023/03/21 09:21:21;;;;;;;4.50;3.53;;;;;;;14.65;50.57;99593.19;6169295;23;20186;-81
2023/03/21 09:23:51;;;;;;;3.72;3.40;;;;;;;14.70;50.36;99588.38;6173045;23;20162;-82
2023/03/21 09:26:18;;;;;;;5.88;3.58;;;;;;;14.80;50.45;99588.50;6172878;23;20162;-79
2023/03/21 09:31:27;;;;;;;4.90;3.83;;;;;;;14.94;50.23;99590.00;6165556;23;20208;-79
2023/03/21 09:33:57;;;;;;;4.40;3.38;;;;;;;14.92;50.11;99594.56;6178206;23;20155;-82
2023/03/21 09:36:25;;;;;;;4.40;4.05;;;;;;;14.87;50.11;99592.28;6182865;23;20158;-80
2023/03/21 09:38:55;;;;;;;4.82;3.40;;;;;;;14.94;49.57;99595.28;6181305;23;20510;-79
2023/03/21 09:41:44;;;;;;;3.22;2.92;;;;;;;14.96;49.62;99594.19;6181044;23;20487;-79
2023/03/21 09:44:38;;;;;;;5.53;3.50;;;;;;;15.04;49.49;99593.53;6181634;23;20165;-79
2023/03/21 09:47:23;;;;;;;3.85;3.38;;;;;;;15.10;49.41;99589.59;6181235;23;20234;-79
2023/03/21 09:50:03;;;;;;;5.63;3.50;;;;;;;15.16;49.40;99589.91;6181312;23;20178;-78
2023/03/21 09:52:37;;;;;;;3.45;2.90;;;;;;;15.15;49.09;99584.72;6182122;23;20553;-79
2023/03/21 09:55:17;;;;;;;3.30;3.00;;;;;;;15.05;49.65;99587.31;6180136;23;20177;-78
2023/03/21 09:57:46;;;;;;;4.78;3.55;;;;;;;15.09;49.65;99583.44;6180888;23;20217;-79
2023/03/21 10:00:19;;;;;;;3.70;3.08;;;;;;;15.27;49.15;99584.53;6181960;23;20147;-79
2023/03/21 10:02:48;;;;;;;6.47;3.70;;;;;;;15.34;49.02;99584.03;6182477;23;20182;-82
2023/03/21 10:05:20;;;;;;;4.45;4.05;;;;;;;15.37;48.67;99581.97;6183461;23;20474;-79
2023/03/21 10:08:18;;;;;;;5.95;4.05;;;;;;;15.48;48.12;99583.72;6183403;23;20214;-79
2023/03/21 10:10:49;;;;;;;5.75;4.50;;;;;;;15.60;48.17;99579.19;6182638;23;20519;-79
2023/03/21 10:13:25;;;;;;;4.30;3.72;;;;;;;15.78;47.70;99582.13;6182480;23;20154;-82
2023/03/21 10:15:55;;;;;;;9.45;5.03;;;;;;;15.97;47.23;99574.25;6183003;23;20161;-82
2023/03/21 10:18:26;;;;;;;7.55;6.15;;;;;;;16.06;46.93;99578.75;6179741;23;20261;-79
2023/03/21 10:20:52;;;;;;;8.82;6.13;;;;;;;16.17;46.62;99583.13;6178736;23;20155;-79
2023/03/21 10:23:21;;;;;;;8.53;6.50;;;;;;;16.30;46.29;99565.16;6180483;23;20211;-81
2023/03/21 10:26:07;;;;;;;12.02;7.93;;;;;;;16.48;46.01;99562.72;6179838;23;20397;-79
2023/03/21 10:28:37;;;;;;;13.75;10.13;;;;;;;16.62;45.84;99564.13;6177496;23;20187;-84
2023/03/21 10:31:08;;;;;;;10.80;7.72;;;;;;;16.71;45.63;99546.53;6179753;23;20273;-78
2023/03/21 10:33:41;;;;;;;9.93;5.78;;;;;;;16.86;45.33;99554.97;6179893;23;20876;-79
2023/03/21 10:36:19;;;;;;;9.45;6.72;;;;;;;17.05;44.55;99547.00;6179058;23;20380;-78
2023/03/21 10:39:06;;;;;;;9.85;5.80;;;;;;;17.21;43.60;99552.56;6178722;23;20189;-80
2023/03/21 10:41:39;;;;;;;12.57;6.07;;;;;;;17.06;43.87;99550.50;6185584;23;20262;-80
2023/03/21 10:44:14;;;;;;;7.05;5.57;;;;;;;16.91;44.24;99545.63;6154379;23;20155;-79
2023/03/21 10:47:06;;;;;;;8.43;5.50;;;;;;;17.01;44.10;99538.50;6178926;23;20149;-79
2023/03/21 10:49:32;;;;;;;5.00;3.33;;;;;;;17.14;43.39;99540.00;6179164;23;20561;-82
2023/03/21 10:52:02;;;;;;;2.70;2.50;;;;;;;17.16;42.96;99530.09;6179818;23;20152;-79
2023/03/21 10:54:34;;;;;;;2.92;2.55;;;;;;;17.31;42.80;99539.31;6178174;23;20731;-79
2023/03/21 10:57:06;;;;;;;2.50;2.30;;;;;;;17.42;42.47;99533.81;6179770;23;20157;-79
2023/03/21 10:59:54;;;;;;;5.13;3.05;;;;;;;17.46;42.01;99531.72;6179522;23;20264;-80
2023/03/21 11:02:36;;;;;;;4.10;2.40;;;;;;;17.51;41.98;99525.97;6178821;23;20717;-80
2023/03/21 11:05:26;;;;;;;4.00;2.15;;;;;;;17.40;42.22;99527.81;6181538;23;20162;-80
2023/03/21 11:08:02;;;;;;;3.47;2.08;;;;;;;17.27;42.53;99521.97;6183124;23;20160;-83
2023/03/21 11:10:50;;;;;;;4.93;2.33;;;;;;;17.29;42.57;99525.31;6182323;23;20155;-82
2023/03/21 11:13:22;;;;;;;2.20;2.00;;;;;;;17.40;42.44;99519.03;6180074;23;20158;-81
2023/03/21 11:15:51;;;;;;;2.10;1.90;;;;;;;17.50;42.61;99521.63;6180766;23;20185;-82
2023/03/21 11:18:21;;;;;;;2.10;1.65;;;;;;;17.59;42.43;99505.69;6183416;23;20419;-82
2023/03/21 11:20:51;;;;;;;4.53;2.22;;;;;;;17.70;42.10;99502.00;6184709;23;20155;-77
2023/03/21 11:23:21;;;;;;;2.50;2.30;;;;;;;17.77;41.82;99503.09;6183830;23;20160;-80
2023/03/21 11:25:51;;;;;;;2.37;2.17;;;;;;;17.78;42.18;99498.63;6183200;23;20162;-79
2023/03/21 11:28:41;;;;;;;2.38;1.80;;;;;;;17.81;42.02;99499.19;6154582;23;20484;-81
2023/03/21 11:31:17;;;;;;;2.57;2.07;;;;;;;17.82;41.91;99489.38;6180016;23;20300;-79
2023/03/21 11:33:52;;;;;;;3.90;2.37;;;;;;;17.72;42.10;99488.59;6182261;23;20385;-80
2023/03/21 11:36:18;;;;;;;2.90;2.03;;;;;;;17.60;42.38;99491.41;6186786;23;20394;-79
2023/03/21 11:38:56;;;;;;;1.67;1.57;;;;;;;17.58;42.47;99481.91;6181900;23;20514;-81
2023/03/21 11:41:31;;;;;;;4.75;2.10;;;;;;;17.56;42.62;99475.94;6181427;23;20819;-80
2023/03/21 11:43:59;;;;;;;2.38;2.17;;;;;;;17.51;42.68;99470.22;6183115;23;20566;-79
2023/03/21 11:46:31;;;;;;;1.90;1.75;;;;;;;17.50;42.67;99468.53;6152149;23;20564;-80
2023/03/21 11:49:00;;;;;;;2.95;2.35;;;;;;;17.55;42.54;99467.13;6150898;23;20213;-81
2023/03/21 11:51:53;;;;;;;3.50;2.30;;;;;;;17.59;42.13;99465.00;6150783;23;20185;-81
2023/03/21 11:54:51;;;;;;;2.63;1.90;;;;;;;17.67;42.05;99459.78;6152041;23;20177;-80
2023/03/21 11:57:32;;;;;;;2.95;1.52;;;;;;;17.78;42.12;99456.94;6155900;23;20947;-79
2023/03/21 12:00:16;;;;;;;1.90;1.52;;;;;;;17.85;41.75;99454.59;6155473;23;20204;-79
2023/03/21 12:03:30;;;;;;;1.87;1.50;;;;;;;17.91;41.61;99443.34;6157218;23;20663;-79